sensor_id;sensor_type;location;lat;lon;timestamp;P1;durP1;ratioP1;P2;durP2;ratioP2
68995;SDS011;56056;48.990;12.146;2023-05-07T00:02:07;1072.78;;;987.63;;
68995;SDS011;56056;48.990;12.146;2023-05-07T00:04:34;1030.88;;;949.47;;
68995;SDS011;56056;48.990;12.146;2023-05-07T00:07:02;1071.47;;;985.47;;
68995;SDS011;56056;48.990;12.146;2023-05-07T00:09:28;1084.55;;;994.75;;
68995;SDS011;56056;48.990;12.146;2023-05-07T00:11:54;1090.32;;;996.42;;
68995;SDS011;56056;48.990;12.146;2023-05-07T00:14:19;1117.10;;;999.90;;
68995;SDS011;56056;48.990;12.146;2023-05-07T00:16:45;1082.22;;;995.90;;
68995;SDS011;56056;48.990;12.146;2023-05-07T00:19:11;1095.32;;;999.90;;
68995;SDS011;56056;48.990;12.146;2023-05-07T00:21:38;1054.75;;;969.67;;
68995;SDS011;56056;48.990;12.146;2023-05-07T00:24:04;1031.70;;;954.70;;
68995;SDS011;56056;48.990;12.146;2023-05-07T00:26:30;1027.53;;;948.97;;
68995;SDS011;56056;48.990;12.146;2023-05-07T00:28:55;1034.13;;;954.58;;
68995;SDS011;56056;48.990;12.146;2023-05-07T00:31:21;1035.63;;;959.55;;
68995;SDS011;56056;48.990;12.146;2023-05-07T00:33:47;1042.07;;;959.60;;
68995;SDS011;56056;48.990;12.146;2023-05-07T00:36:12;1022.33;;;944.80;;
68995;SDS011;56056;48.990;12.146;2023-05-07T00:38:39;1037.45;;;957.92;;
68995;SDS011;56056;48.990;12.146;2023-05-07T00:41:05;1040.78;;;961.60;;
68995;SDS011;56056;48.990;12.146;2023-05-07T00:43:31;998.40;;;924.20;;
68995;SDS011;56056;48.990;12.146;2023-05-07T00:45:57;1056.63;;;974.05;;
68995;SDS011;56056;48.990;12.146;2023-05-07T00:48:22;1008.00;;;931.15;;
68995;SDS011;56056;48.990;12.146;2023-05-07T00:50:49;1012.58;;;938.38;;
68995;SDS011;56056;48.990;12.146;2023-05-07T00:53:15;1007.65;;;932.50;;
68995;SDS011;56056;48.990;12.146;2023-05-07T00:55:42;1073.90;;;990.78;;
68995;SDS011;56056;48.990;12.146;2023-05-07T00:58:07;1050.80;;;968.17;;
68995;SDS011;56056;48.990;12.146;2023-05-07T01:00:33;965.40;;;899.03;;
68995;SDS011;56056;48.990;12.146;2023-05-07T01:02:59;974.92;;;908.65;;
68995;SDS011;56056;48.990;12.146;2023-05-07T01:05:25;954.85;;;888.38;;
68995;SDS011;56056;48.990;12.146;2023-05-07T01:07:51;968.78;;;901.08;;
68995;SDS011;56056;48.990;12.146;2023-05-07T01:10:19;985.42;;;916.00;;
68995;SDS011;56056;48.990;12.146;2023-05-07T01:12:47;963.85;;;895.03;;
68995;SDS011;56056;48.990;12.146;2023-05-07T01:15:14;960.22;;;894.65;;
68995;SDS011;56056;48.990;12.146;2023-05-07T01:17:40;957.80;;;890.78;;
68995;SDS011;56056;48.990;12.146;2023-05-07T01:20:07;955.10;;;888.28;;
68995;SDS011;56056;48.990;12.146;2023-05-07T01:22:37;949.10;;;880.47;;
68995;SDS011;56056;48.990;12.146;2023-05-07T01:25:03;979.97;;;911.38;;
68995;SDS011;56056;48.990;12.146;2023-05-07T01:27:29;989.38;;;916.72;;
68995;SDS011;56056;48.990;12.146;2023-05-07T01:29:55;995.58;;;924.55;;
68995;SDS011;56056;48.990;12.146;2023-05-07T01:32:23;992.17;;;919.58;;
68995;SDS011;56056;48.990;12.146;2023-05-07T01:34:50;1009.20;;;934.03;;
68995;SDS011;56056;48.990;12.146;2023-05-07T01:37:17;1027.13;;;947.42;;
68995;SDS011;56056;48.990;12.146;2023-05-07T01:39:45;1071.72;;;985.50;;
68995;SDS011;56056;48.990;12.146;2023-05-07T01:42:10;1047.45;;;966.72;;
68995;SDS011;56056;48.990;12.146;2023-05-07T01:44:37;1055.75;;;968.47;;
68995;SDS011;56056;48.990;12.146;2023-05-07T01:47:02;1046.18;;;964.08;;
68995;SDS011;56056;48.990;12.146;2023-05-07T01:49:28;1041.72;;;957.75;;
68995;SDS011;56056;48.990;12.146;2023-05-07T01:51:55;1085.05;;;997.00;;
68995;SDS011;56056;48.990;12.146;2023-05-07T01:54:24;1051.30;;;967.63;;
68995;SDS011;56056;48.990;12.146;2023-05-07T01:56:54;1051.25;;;969.30;;
68995;SDS011;56056;48.990;12.146;2023-05-07T01:59:21;1061.05;;;978.92;;
68995;SDS011;56056;48.990;12.146;2023-05-07T02:01:46;1029.70;;;954.15;;
68995;SDS011;56056;48.990;12.146;2023-05-07T02:04:12;981.50;;;909.55;;
68995;SDS011;56056;48.990;12.146;2023-05-07T02:06:38;997.83;;;925.97;;
68995;SDS011;56056;48.990;12.146;2023-05-07T02:09:03;1024.07;;;947.92;;
68995;SDS011;56056;48.990;12.146;2023-05-07T02:11:29;1036.93;;;959.83;;
68995;SDS011;56056;48.990;12.146;2023-05-07T02:13:56;1011.13;;;936.38;;
68995;SDS011;56056;48.990;12.146;2023-05-07T02:16:22;1008.53;;;934.60;;
68995;SDS011;56056;48.990;12.146;2023-05-07T02:18:48;995.80;;;924.38;;
68995;SDS011;56056;48.990;12.146;2023-05-07T02:21:14;1010.40;;;937.03;;
68995;SDS011;56056;48.990;12.146;2023-05-07T02:23:40;1008.22;;;936.78;;
68995;SDS011;56056;48.990;12.146;2023-05-07T02:26:05;948.05;;;879.42;;
68995;SDS011;56056;48.990;12.146;2023-05-07T02:28:31;1000.55;;;927.72;;
68995;SDS011;56056;48.990;12.146;2023-05-07T02:30:58;948.45;;;882.38;;
68995;SDS011;56056;48.990;12.146;2023-05-07T02:33:25;974.05;;;906.30;;
68995;SDS011;56056;48.990;12.146;2023-05-07T02:35:51;969.28;;;902.40;;
68995;SDS011;56056;48.990;12.146;2023-05-07T02:38:17;992.85;;;923.38;;
68995;SDS011;56056;48.990;12.146;2023-05-07T02:40:43;966.60;;;900.13;;
68995;SDS011;56056;48.990;12.146;2023-05-07T02:43:08;958.03;;;892.05;;
68995;SDS011;56056;48.990;12.146;2023-05-07T02:45:34;950.20;;;883.92;;
68995;SDS011;56056;48.990;12.146;2023-05-07T02:48:02;974.75;;;908.85;;
68995;SDS011;56056;48.990;12.146;2023-05-07T02:50:28;988.42;;;921.17;;
68995;SDS011;56056;48.990;12.146;2023-05-07T02:52:54;954.72;;;890.03;;
68995;SDS011;56056;48.990;12.146;2023-05-07T02:55:20;1020.00;;;946.38;;
68995;SDS011;56056;48.990;12.146;2023-05-07T02:57:46;988.88;;;918.17;;
68995;SDS011;56056;48.990;12.146;2023-05-07T03:00:12;1023.08;;;948.55;;
68995;SDS011;56056;48.990;12.146;2023-05-07T03:02:39;1053.78;;;974.90;;
68995;SDS011;56056;48.990;12.146;2023-05-07T03:05:07;1111.75;;;999.90;;
68995;SDS011;56056;48.990;12.146;2023-05-07T03:07:33;1058.97;;;976.45;;
68995;SDS011;56056;48.990;12.146;2023-05-07T03:09:59;1055.32;;;973.60;;
68995;SDS011;56056;48.990;12.146;2023-05-07T03:12:25;1037.53;;;958.60;;
68995;SDS011;56056;48.990;12.146;2023-05-07T03:14:50;1037.55;;;958.58;;
68995;SDS011;56056;48.990;12.146;2023-05-07T03:17:16;1031.15;;;954.22;;
68995;SDS011;56056;48.990;12.146;2023-05-07T03:19:41;1014.15;;;938.65;;
68995;SDS011;56056;48.990;12.146;2023-05-07T03:22:08;1017.25;;;945.08;;
68995;SDS011;56056;48.990;12.146;2023-05-07T03:24:34;1035.68;;;961.30;;
68995;SDS011;56056;48.990;12.146;2023-05-07T03:27:00;987.35;;;918.42;;
68995;SDS011;56056;48.990;12.146;2023-05-07T03:29:26;972.45;;;903.60;;
68995;SDS011;56056;48.990;12.146;2023-05-07T03:31:51;1017.40;;;945.35;;
68995;SDS011;56056;48.990;12.146;2023-05-07T03:34:17;991.92;;;921.45;;
68995;SDS011;56056;48.990;12.146;2023-05-07T03:36:46;987.47;;;918.03;;
68995;SDS011;56056;48.990;12.146;2023-05-07T03:39:14;980.55;;;912.08;;
68995;SDS011;56056;48.990;12.146;2023-05-07T03:41:39;997.03;;;926.92;;
68995;SDS011;56056;48.990;12.146;2023-05-07T03:44:05;1031.60;;;955.00;;
68995;SDS011;56056;48.990;12.146;2023-05-07T03:46:31;1033.88;;;957.33;;
68995;SDS011;56056;48.990;12.146;2023-05-07T03:48:57;1029.35;;;952.72;;
68995;SDS011;56056;48.990;12.146;2023-05-07T03:51:23;1027.80;;;949.15;;
68995;SDS011;56056;48.990;12.146;2023-05-07T03:53:49;1047.05;;;966.15;;
68995;SDS011;56056;48.990;12.146;2023-05-07T03:56:19;1036.90;;;958.42;;
68995;SDS011;56056;48.990;12.146;2023-05-07T03:58:45;1038.13;;;961.38;;
68995;SDS011;56056;48.990;12.146;2023-05-07T04:01:12;1052.07;;;974.47;;
68995;SDS011;56056;48.990;12.146;2023-05-07T04:03:37;1001.17;;;926.05;;
68995;SDS011;56056;48.990;12.146;2023-05-07T04:06:03;984.08;;;913.20;;
68995;SDS011;56056;48.990;12.146;2023-05-07T04:08:29;984.63;;;916.20;;
68995;SDS011;56056;48.990;12.146;2023-05-07T04:10:55;1049.80;;;972.63;;
68995;SDS011;56056;48.990;12.146;2023-05-07T04:13:22;1026.63;;;951.40;;
68995;SDS011;56056;48.990;12.146;2023-05-07T04:15:47;1046.97;;;969.65;;
68995;SDS011;56056;48.990;12.146;2023-05-07T04:18:14;1065.65;;;986.65;;
68995;SDS011;56056;48.990;12.146;2023-05-07T04:20:39;1070.28;;;990.28;;
68995;SDS011;56056;48.990;12.146;2023-05-07T04:23:05;1046.60;;;965.90;;
68995;SDS011;56056;48.990;12.146;2023-05-07T04:25:31;1046.43;;;968.80;;
68995;SDS011;56056;48.990;12.146;2023-05-07T04:27:56;1078.13;;;992.05;;
68995;SDS011;56056;48.990;12.146;2023-05-07T04:30:23;1089.10;;;998.67;;
68995;SDS011;56056;48.990;12.146;2023-05-07T04:32:49;1117.75;;;999.90;;
68995;SDS011;56056;48.990;12.146;2023-05-07T04:35:15;1086.72;;;999.05;;
68995;SDS011;56056;48.990;12.146;2023-05-07T04:37:40;1121.60;;;999.90;;
68995;SDS011;56056;48.990;12.146;2023-05-07T04:40:07;1148.13;;;999.90;;
68995;SDS011;56056;48.990;12.146;2023-05-07T04:42:32;1167.53;;;999.90;;
68995;SDS011;56056;48.990;12.146;2023-05-07T04:44:58;1102.20;;;996.30;;
68995;SDS011;56056;48.990;12.146;2023-05-07T04:47:26;1064.47;;;986.00;;
68995;SDS011;56056;48.990;12.146;2023-05-07T04:49:51;1076.60;;;994.20;;
68995;SDS011;56056;48.990;12.146;2023-05-07T04:52:17;1073.15;;;989.00;;
68995;SDS011;56056;48.990;12.146;2023-05-07T04:54:43;1015.95;;;935.72;;
68995;SDS011;56056;48.990;12.146;2023-05-07T04:57:08;943.47;;;874.53;;
68995;SDS011;56056;48.990;12.146;2023-05-07T04:59:34;919.38;;;853.47;;
68995;SDS011;56056;48.990;12.146;2023-05-07T05:02:00;893.40;;;829.20;;
68995;SDS011;56056;48.990;12.146;2023-05-07T05:04:27;851.60;;;791.58;;
68995;SDS011;56056;48.990;12.146;2023-05-07T05:06:53;849.65;;;788.40;;
68995;SDS011;56056;48.990;12.146;2023-05-07T05:09:18;874.88;;;811.53;;
68995;SDS011;56056;48.990;12.146;2023-05-07T05:11:44;908.13;;;841.13;;
68995;SDS011;56056;48.990;12.146;2023-05-07T05:14:10;944.85;;;868.55;;
68995;SDS011;56056;48.990;12.146;2023-05-07T05:16:35;1172.60;;;999.90;;
68995;SDS011;56056;48.990;12.146;2023-05-07T05:19:01;1185.22;;;999.90;;
68995;SDS011;56056;48.990;12.146;2023-05-07T05:21:29;1208.03;;;999.90;;
68995;SDS011;56056;48.990;12.146;2023-05-07T05:23:54;1205.80;;;999.90;;
68995;SDS011;56056;48.990;12.146;2023-05-07T05:26:20;1221.60;;;999.90;;
68995;SDS011;56056;48.990;12.146;2023-05-07T05:28:46;1227.60;;;999.90;;
68995;SDS011;56056;48.990;12.146;2023-05-07T05:31:11;1194.88;;;999.90;;
68995;SDS011;56056;48.990;12.146;2023-05-07T05:33:37;1203.05;;;999.90;;
68995;SDS011;56056;48.990;12.146;2023-05-07T05:36:03;1198.72;;;999.90;;
68995;SDS011;56056;48.990;12.146;2023-05-07T05:38:30;1217.43;;;999.90;;
68995;SDS011;56056;48.990;12.146;2023-05-07T05:40:56;1210.28;;;999.90;;
68995;SDS011;56056;48.990;12.146;2023-05-07T05:43:22;1214.85;;;999.90;;
68995;SDS011;56056;48.990;12.146;2023-05-07T05:45:47;1206.05;;;999.90;;
68995;SDS011;56056;48.990;12.146;2023-05-07T05:48:13;1230.95;;;999.90;;
68995;SDS011;56056;48.990;12.146;2023-05-07T05:50:39;1222.15;;;999.90;;
68995;SDS011;56056;48.990;12.146;2023-05-07T05:53:04;1213.13;;;999.90;;
68995;SDS011;56056;48.990;12.146;2023-05-07T05:55:31;1206.90;;;999.90;;
68995;SDS011;56056;48.990;12.146;2023-05-07T05:57:57;1222.85;;;999.90;;
68995;SDS011;56056;48.990;12.146;2023-05-07T06:00:23;1187.32;;;999.90;;
68995;SDS011;56056;48.990;12.146;2023-05-07T06:02:49;1181.00;;;999.90;;
68995;SDS011;56056;48.990;12.146;2023-05-07T06:05:14;1178.57;;;999.90;;
68995;SDS011;56056;48.990;12.146;2023-05-07T06:07:40;1170.05;;;999.90;;
68995;SDS011;56056;48.990;12.146;2023-05-07T06:10:06;1153.03;;;999.90;;
68995;SDS011;56056;48.990;12.146;2023-05-07T06:12:34;1175.95;;;999.90;;
68995;SDS011;56056;48.990;12.146;2023-05-07T06:14:59;1174.97;;;999.90;;
68995;SDS011;56056;48.990;12.146;2023-05-07T06:17:25;1167.32;;;999.90;;
68995;SDS011;56056;48.990;12.146;2023-05-07T06:19:51;1148.32;;;999.90;;
68995;SDS011;56056;48.990;12.146;2023-05-07T06:22:16;1117.97;;;999.90;;
68995;SDS011;56056;48.990;12.146;2023-05-07T06:24:42;1124.90;;;999.90;;
68995;SDS011;56056;48.990;12.146;2023-05-07T06:27:08;1062.05;;;976.35;;
68995;SDS011;56056;48.990;12.146;2023-05-07T06:29:35;1034.47;;;959.30;;
68995;SDS011;56056;48.990;12.146;2023-05-07T06:32:06;1005.10;;;934.72;;
68995;SDS011;56056;48.990;12.146;2023-05-07T06:34:32;961.20;;;898.05;;
68995;SDS011;56056;48.990;12.146;2023-05-07T06:36:58;866.70;;;813.50;;
68995;SDS011;56056;48.990;12.146;2023-05-07T06:39:24;862.50;;;811.47;;
68995;SDS011;56056;48.990;12.146;2023-05-07T06:41:49;754.35;;;713.03;;
68995;SDS011;56056;48.990;12.146;2023-05-07T06:44:15;704.40;;;668.05;;
68995;SDS011;56056;48.990;12.146;2023-05-07T06:46:42;633.95;;;602.47;;
68995;SDS011;56056;48.990;12.146;2023-05-07T06:49:08;582.97;;;556.42;;
68995;SDS011;56056;48.990;12.146;2023-05-07T06:51:33;558.45;;;533.00;;
68995;SDS011;56056;48.990;12.146;2023-05-07T06:53:59;519.33;;;495.83;;
68995;SDS011;56056;48.990;12.146;2023-05-07T06:56:25;516.92;;;494.35;;
68995;SDS011;56056;48.990;12.146;2023-05-07T06:58:50;527.05;;;503.77;;
68995;SDS011;56056;48.990;12.146;2023-05-07T07:01:16;440.10;;;421.17;;
68995;SDS011;56056;48.990;12.146;2023-05-07T07:03:43;386.98;;;370.60;;
68995;SDS011;56056;48.990;12.146;2023-05-07T07:06:09;392.58;;;376.45;;
68995;SDS011;56056;48.990;12.146;2023-05-07T07:08:34;428.85;;;410.63;;
68995;SDS011;56056;48.990;12.146;2023-05-07T07:11:00;469.90;;;449.25;;
68995;SDS011;56056;48.990;12.146;2023-05-07T07:13:26;519.03;;;494.98;;
68995;SDS011;56056;48.990;12.146;2023-05-07T07:15:51;505.17;;;482.38;;
68995;SDS011;56056;48.990;12.146;2023-05-07T07:18:18;628.75;;;597.08;;
68995;SDS011;56056;48.990;12.146;2023-05-07T07:20:45;575.25;;;547.80;;
68995;SDS011;56056;48.990;12.146;2023-05-07T07:23:10;585.45;;;557.03;;
68995;SDS011;56056;48.990;12.146;2023-05-07T07:25:36;1224.87;;;999.90;;
68995;SDS011;56056;48.990;12.146;2023-05-07T07:28:02;927.10;;;863.40;;
68995;SDS011;56056;48.990;12.146;2023-05-07T07:30:28;792.60;;;747.03;;
68995;SDS011;56056;48.990;12.146;2023-05-07T07:32:53;774.35;;;730.42;;
68995;SDS011;56056;48.990;12.146;2023-05-07T07:35:20;732.80;;;693.13;;
68995;SDS011;56056;48.990;12.146;2023-05-07T07:37:47;780.55;;;735.03;;
68995;SDS011;56056;48.990;12.146;2023-05-07T07:40:14;769.17;;;725.08;;
68995;SDS011;56056;48.990;12.146;2023-05-07T07:42:40;716.28;;;677.97;;
68995;SDS011;56056;48.990;12.146;2023-05-07T07:45:06;734.63;;;694.38;;
68995;SDS011;56056;48.990;12.146;2023-05-07T07:47:33;694.05;;;658.60;;
68995;SDS011;56056;48.990;12.146;2023-05-07T07:49:59;630.60;;;599.30;;
68995;SDS011;56056;48.990;12.146;2023-05-07T07:52:24;636.78;;;605.60;;
68995;SDS011;56056;48.990;12.146;2023-05-07T07:54:52;585.70;;;558.63;;
68995;SDS011;56056;48.990;12.146;2023-05-07T07:57:17;569.13;;;541.63;;
68995;SDS011;56056;48.990;12.146;2023-05-07T07:59:43;489.88;;;467.83;;
68995;SDS011;56056;48.990;12.146;2023-05-07T08:02:09;453.13;;;432.90;;
68995;SDS011;56056;48.990;12.146;2023-05-07T08:04:34;440.17;;;420.33;;
68995;SDS011;56056;48.990;12.146;2023-05-07T08:07:02;469.52;;;449.13;;
68995;SDS011;56056;48.990;12.146;2023-05-07T08:09:27;482.98;;;461.85;;
68995;SDS011;56056;48.990;12.146;2023-05-07T08:11:54;478.73;;;457.98;;
68995;SDS011;56056;48.990;12.146;2023-05-07T08:14:20;499.17;;;477.08;;
68995;SDS011;56056;48.990;12.146;2023-05-07T08:16:45;537.03;;;512.67;;
68995;SDS011;56056;48.990;12.146;2023-05-07T08:19:11;658.35;;;622.53;;
68995;SDS011;56056;48.990;12.146;2023-05-07T08:21:38;679.67;;;644.17;;
68995;SDS011;56056;48.990;12.146;2023-05-07T08:24:04;597.45;;;568.90;;
68995;SDS011;56056;48.990;12.146;2023-05-07T08:26:30;558.53;;;531.65;;
68995;SDS011;56056;48.990;12.146;2023-05-07T08:28:57;623.45;;;592.15;;
68995;SDS011;56056;48.990;12.146;2023-05-07T08:31:23;570.58;;;542.97;;
68995;SDS011;56056;48.990;12.146;2023-05-07T08:33:49;572.53;;;545.42;;
68995;SDS011;56056;48.990;12.146;2023-05-07T08:36:15;551.65;;;525.63;;
68995;SDS011;56056;48.990;12.146;2023-05-07T08:38:40;579.55;;;552.30;;
68995;SDS011;56056;48.990;12.146;2023-05-07T08:41:09;579.95;;;552.08;;
68995;SDS011;56056;48.990;12.146;2023-05-07T08:43:35;574.78;;;547.67;;
68995;SDS011;56056;48.990;12.146;2023-05-07T08:46:02;562.30;;;535.78;;
68995;SDS011;56056;48.990;12.146;2023-05-07T08:48:29;553.95;;;527.72;;
68995;SDS011;56056;48.990;12.146;2023-05-07T08:50:57;441.67;;;420.83;;
68995;SDS011;56056;48.990;12.146;2023-05-07T08:53:23;517.83;;;493.92;;
68995;SDS011;56056;48.990;12.146;2023-05-07T08:55:49;607.53;;;578.22;;
68995;SDS011;56056;48.990;12.146;2023-05-07T08:58:15;565.80;;;538.30;;
68995;SDS011;56056;48.990;12.146;2023-05-07T09:00:40;626.15;;;595.22;;
68995;SDS011;56056;48.990;12.146;2023-05-07T09:03:08;612.50;;;582.92;;
68995;SDS011;56056;48.990;12.146;2023-05-07T09:05:37;676.65;;;640.95;;
68995;SDS011;56056;48.990;12.146;2023-05-07T09:08:03;627.47;;;595.90;;
68995;SDS011;56056;48.990;12.146;2023-05-07T09:10:29;568.05;;;541.78;;
68995;SDS011;56056;48.990;12.146;2023-05-07T09:12:55;517.67;;;494.65;;
68995;SDS011;56056;48.990;12.146;2023-05-07T09:15:20;523.25;;;499.50;;
68995;SDS011;56056;48.990;12.146;2023-05-07T09:17:46;478.83;;;457.55;;
68995;SDS011;56056;48.990;12.146;2023-05-07T09:20:13;478.77;;;457.75;;
68995;SDS011;56056;48.990;12.146;2023-05-07T09:22:39;458.27;;;438.23;;
68995;SDS011;56056;48.990;12.146;2023-05-07T09:25:05;586.22;;;557.53;;
68995;SDS011;56056;48.990;12.146;2023-05-07T09:27:32;493.85;;;472.75;;
68995;SDS011;56056;48.990;12.146;2023-05-07T09:29:57;494.45;;;472.73;;
68995;SDS011;56056;48.990;12.146;2023-05-07T09:32:24;482.05;;;461.35;;
68995;SDS011;56056;48.990;12.146;2023-05-07T09:34:50;478.95;;;458.38;;
68995;SDS011;56056;48.990;12.146;2023-05-07T09:37:17;415.60;;;398.08;;
68995;SDS011;56056;48.990;12.146;2023-05-07T09:39:43;432.80;;;414.77;;
68995;SDS011;56056;48.990;12.146;2023-05-07T09:42:09;451.67;;;432.38;;
68995;SDS011;56056;48.990;12.146;2023-05-07T09:44:36;498.02;;;475.08;;
68995;SDS011;56056;48.990;12.146;2023-05-07T09:47:03;429.05;;;410.63;;
68995;SDS011;56056;48.990;12.146;2023-05-07T09:49:30;382.02;;;366.52;;
68995;SDS011;56056;48.990;12.146;2023-05-07T09:52:00;348.80;;;334.58;;
68995;SDS011;56056;48.990;12.146;2023-05-07T09:54:27;535.08;;;507.30;;
68995;SDS011;56056;48.990;12.146;2023-05-07T09:56:57;339.50;;;326.00;;
68995;SDS011;56056;48.990;12.146;2023-05-07T09:59:24;371.17;;;356.25;;
68995;SDS011;56056;48.990;12.146;2023-05-07T10:01:49;363.48;;;348.40;;
68995;SDS011;56056;48.990;12.146;2023-05-07T10:04:16;455.63;;;434.25;;
68995;SDS011;56056;48.990;12.146;2023-05-07T10:06:43;365.05;;;349.23;;
68995;SDS011;56056;48.990;12.146;2023-05-07T10:09:09;354.42;;;339.95;;
68995;SDS011;56056;48.990;12.146;2023-05-07T10:11:37;370.20;;;354.38;;
68995;SDS011;56056;48.990;12.146;2023-05-07T10:14:03;534.53;;;509.58;;
68995;SDS011;56056;48.990;12.146;2023-05-07T10:16:31;518.28;;;491.75;;
68995;SDS011;56056;48.990;12.146;2023-05-07T10:18:58;543.63;;;518.13;;
68995;SDS011;56056;48.990;12.146;2023-05-07T10:21:24;704.03;;;666.40;;
68995;SDS011;56056;48.990;12.146;2023-05-07T10:23:53;663.70;;;629.45;;
68995;SDS011;56056;48.990;12.146;2023-05-07T10:26:23;678.75;;;642.75;;
68995;SDS011;56056;48.990;12.146;2023-05-07T10:28:55;620.15;;;588.53;;
68995;SDS011;56056;48.990;12.146;2023-05-07T10:31:26;646.03;;;612.95;;
68995;SDS011;56056;48.990;12.146;2023-05-07T10:34:18;693.80;;;656.80;;
68995;SDS011;56056;48.990;12.146;2023-05-07T10:36:46;632.03;;;599.33;;
68995;SDS011;56056;48.990;12.146;2023-05-07T10:39:12;598.80;;;569.33;;
68995;SDS011;56056;48.990;12.146;2023-05-07T10:41:38;569.25;;;541.85;;
68995;SDS011;56056;48.990;12.146;2023-05-07T10:44:05;652.55;;;618.78;;
68995;SDS011;56056;48.990;12.146;2023-05-07T10:46:31;615.05;;;583.78;;
68995;SDS011;56056;48.990;12.146;2023-05-07T10:49:06;628.50;;;595.17;;
68995;SDS011;56056;48.990;12.146;2023-05-07T10:51:33;608.67;;;577.92;;
68995;SDS011;56056;48.990;12.146;2023-05-07T10:54:18;804.40;;;756.08;;
68995;SDS011;56056;48.990;12.146;2023-05-07T10:56:43;693.85;;;654.95;;
68995;SDS011;56056;48.990;12.146;2023-05-07T11:01:56;914.72;;;855.65;;
68995;SDS011;56056;48.990;12.146;2023-05-07T11:04:23;880.42;;;827.22;;
68995;SDS011;56056;48.990;12.146;2023-05-07T11:07:24;825.55;;;774.22;;
68995;SDS011;56056;48.990;12.146;2023-05-07T11:09:54;867.80;;;813.53;;
68995;SDS011;56056;48.990;12.146;2023-05-07T11:15:36;852.28;;;797.78;;
68995;SDS011;56056;48.990;12.146;2023-05-07T11:18:03;670.03;;;632.65;;
68995;SDS011;56056;48.990;12.146;2023-05-07T11:20:45;839.22;;;787.53;;
68995;SDS011;56056;48.990;12.146;2023-05-07T11:26:12;749.95;;;708.30;;
68995;SDS011;56056;48.990;12.146;2023-05-07T11:28:38;712.67;;;676.20;;
68995;SDS011;56056;48.990;12.146;2023-05-07T11:31:06;600.55;;;573.85;;
68995;SDS011;56056;48.990;12.146;2023-05-07T11:33:33;539.63;;;517.08;;
68995;SDS011;56056;48.990;12.146;2023-05-07T11:36:00;450.10;;;432.17;;
68995;SDS011;56056;48.990;12.146;2023-05-07T11:38:27;429.63;;;411.73;;
68995;SDS011;56056;48.990;12.146;2023-05-07T11:40:54;523.83;;;501.10;;
68995;SDS011;56056;48.990;12.146;2023-05-07T11:43:21;647.42;;;615.22;;
68995;SDS011;56056;48.990;12.146;2023-05-07T11:45:46;737.72;;;697.92;;
68995;SDS011;56056;48.990;12.146;2023-05-07T11:48:14;823.90;;;776.05;;
68995;SDS011;56056;48.990;12.146;2023-05-07T11:50:49;902.33;;;846.13;;
68995;SDS011;56056;48.990;12.146;2023-05-07T11:53:16;835.45;;;784.80;;
68995;SDS011;56056;48.990;12.146;2023-05-07T11:55:42;868.53;;;816.47;;
68995;SDS011;56056;48.990;12.146;2023-05-07T11:58:09;926.17;;;866.60;;
68995;SDS011;56056;48.990;12.146;2023-05-07T12:00:37;811.95;;;762.42;;
68995;SDS011;56056;48.990;12.146;2023-05-07T12:03:03;748.67;;;705.25;;
68995;SDS011;56056;48.990;12.146;2023-05-07T12:05:30;882.85;;;828.55;;
68995;SDS011;56056;48.990;12.146;2023-05-07T12:07:56;896.55;;;839.85;;
68995;SDS011;56056;48.990;12.146;2023-05-07T12:10:22;902.08;;;847.60;;
68995;SDS011;56056;48.990;12.146;2023-05-07T12:12:47;906.42;;;848.17;;
68995;SDS011;56056;48.990;12.146;2023-05-07T12:15:15;614.72;;;582.00;;
68995;SDS011;56056;48.990;12.146;2023-05-07T12:17:40;885.22;;;830.47;;
68995;SDS011;56056;48.990;12.146;2023-05-07T12:20:07;909.35;;;852.17;;
68995;SDS011;56056;48.990;12.146;2023-05-07T12:22:34;887.95;;;834.10;;
68995;SDS011;56056;48.990;12.146;2023-05-07T12:25:00;859.92;;;805.95;;
68995;SDS011;56056;48.990;12.146;2023-05-07T12:27:27;805.83;;;760.20;;
68995;SDS011;56056;48.990;12.146;2023-05-07T12:29:53;868.88;;;814.67;;
68995;SDS011;56056;48.990;12.146;2023-05-07T12:32:19;898.47;;;841.67;;
68995;SDS011;56056;48.990;12.146;2023-05-07T12:34:46;908.38;;;851.05;;
68995;SDS011;56056;48.990;12.146;2023-05-07T12:37:14;832.00;;;781.58;;
68995;SDS011;56056;48.990;12.146;2023-05-07T12:39:46;876.03;;;822.22;;
68995;SDS011;56056;48.990;12.146;2023-05-07T12:42:14;894.85;;;838.55;;
68995;SDS011;56056;48.990;12.146;2023-05-07T12:44:40;863.58;;;811.00;;
68995;SDS011;56056;48.990;12.146;2023-05-07T12:47:06;914.83;;;857.78;;
68995;SDS011;56056;48.990;12.146;2023-05-07T12:49:34;895.40;;;839.58;;
68995;SDS011;56056;48.990;12.146;2023-05-07T12:52:01;896.40;;;840.75;;
68995;SDS011;56056;48.990;12.146;2023-05-07T12:54:27;916.40;;;857.60;;
68995;SDS011;56056;48.990;12.146;2023-05-07T12:57:01;946.78;;;886.05;;
68995;SDS011;56056;48.990;12.146;2023-05-07T12:59:31;931.75;;;871.67;;
68995;SDS011;56056;48.990;12.146;2023-05-07T13:01:57;839.20;;;787.15;;
68995;SDS011;56056;48.990;12.146;2023-05-07T13:04:24;885.08;;;830.42;;
68995;SDS011;56056;48.990;12.146;2023-05-07T13:06:50;880.33;;;826.10;;
68995;SDS011;56056;48.990;12.146;2023-05-07T13:09:15;902.33;;;844.80;;
68995;SDS011;56056;48.990;12.146;2023-05-07T13:11:41;849.97;;;798.95;;
68995;SDS011;56056;48.990;12.146;2023-05-07T13:14:08;906.05;;;850.42;;
68995;SDS011;56056;48.990;12.146;2023-05-07T13:16:33;806.60;;;759.53;;
68995;SDS011;56056;48.990;12.146;2023-05-07T13:18:59;907.65;;;851.70;;
68995;SDS011;56056;48.990;12.146;2023-05-07T13:21:25;890.70;;;836.10;;
68995;SDS011;56056;48.990;12.146;2023-05-07T13:23:51;913.10;;;855.45;;
68995;SDS011;56056;48.990;12.146;2023-05-07T13:26:17;876.75;;;821.97;;
68995;SDS011;56056;48.990;12.146;2023-05-07T13:28:43;875.40;;;823.80;;
68995;SDS011;56056;48.990;12.146;2023-05-07T13:31:10;881.88;;;828.50;;
68995;SDS011;56056;48.990;12.146;2023-05-07T13:33:36;905.55;;;849.13;;
68995;SDS011;56056;48.990;12.146;2023-05-07T13:36:01;910.60;;;854.88;;
68995;SDS011;56056;48.990;12.146;2023-05-07T13:38:29;890.13;;;834.67;;
68995;SDS011;56056;48.990;12.146;2023-05-07T13:40:55;861.58;;;808.60;;
68995;SDS011;56056;48.990;12.146;2023-05-07T13:43:21;864.45;;;810.72;;
68995;SDS011;56056;48.990;12.146;2023-05-07T13:45:46;894.83;;;835.97;;
68995;SDS011;56056;48.990;12.146;2023-05-07T13:48:13;842.65;;;790.17;;